sensor_id;sensor_type;location;lat;lon;timestamp;temperature;humidity
72919;SHT30;68407;55.694;26.994;2024-02-15T00:04:20;0.4;88.4
72919;SHT30;68407;55.694;26.994;2024-02-15T00:09:48;0.4;88.3
72919;SHT30;68407;55.694;26.994;2024-02-15T00:14:12;0.4;88.1
72919;SHT30;68407;55.694;26.994;2024-02-15T00:19:52;0.4;88.1
72919;SHT30;68407;55.694;26.994;2024-02-15T00:24:14;0.3;88.2
72919;SHT30;68407;55.694;26.994;2024-02-15T00:29:12;0.2;88.1
72919;SHT30;68407;55.694;26.994;2024-02-15T00:35:00;0;88.1
72919;SHT30;68407;55.694;26.994;2024-02-15T00:39:46;-0.2;87.9
72919;SHT30;68407;55.694;26.994;2024-02-15T00:44:14;-0.5;88
72919;SHT30;68407;55.694;26.994;2024-02-15T00:49:20;-0.7;89.1
72919;SHT30;68407;55.694;26.994;2024-02-15T00:54:20;-0.8;89.7
72919;SHT30;68407;55.694;26.994;2024-02-15T01:00:00;-0.8;89.8
72919;SHT30;68407;55.694;26.994;2024-02-15T01:05:00;-0.8;89.6
72919;SHT30;68407;55.694;26.994;2024-02-15T01:10:00;-0.9;89.1
72919;SHT30;68407;55.694;26.994;2024-02-15T01:15:00;-0.9;89.3
72919;SHT30;68407;55.694;26.994;2024-02-15T01:20:00;-0.8;89.6
72919;SHT30;68407;55.694;26.994;2024-02-15T01:24:46;-0.8;89.8
72919;SHT30;68407;55.694;26.994;2024-02-15T01:30:00;-0.9;89.1
72919;SHT30;68407;55.694;26.994;2024-02-15T01:34:34;-1;88.6
72919;SHT30;68407;55.694;26.994;2024-02-15T01:39:20;-1.1;88.4
72919;SHT30;68407;55.694;26.994;2024-02-15T01:44:20;-1.2;88.3
72919;SHT30;68407;55.694;26.994;2024-02-15T01:49:32;-1.1;88.6
72919;SHT30;68407;55.694;26.994;2024-02-15T01:54:20;-1;88.7
72919;SHT30;68407;55.694;26.994;2024-02-15T01:59:22;-0.9;88.9
72919;SHT30;68407;55.694;26.994;2024-02-15T02:04:12;-0.8;88.9
72919;SHT30;68407;55.694;26.994;2024-02-15T02:10:00;-0.7;88.7
72919;SHT30;68407;55.694;26.994;2024-02-15T02:14:44;-0.6;88.8
72919;SHT30;68407;55.694;26.994;2024-02-15T02:19:24;-0.4;89
72919;SHT30;68407;55.694;26.994;2024-02-15T02:24:33;-0.3;88.8
72919;SHT30;68407;55.694;26.994;2024-02-15T02:29:41;-0.3;88.6
72919;SHT30;68407;55.694;26.994;2024-02-15T02:34:50;-0.3;88.5
72919;SHT30;68407;55.694;26.994;2024-02-15T02:39:10;-0.3;88.6
72919;SHT30;68407;55.694;26.994;2024-02-15T02:44:58;-0.2;88.4
72919;SHT30;68407;55.694;26.994;2024-02-15T02:49:44;-0.3;87.9
72919;SHT30;68407;55.694;26.994;2024-02-15T02:55:00;-0.3;88.3
72919;SHT30;68407;55.694;26.994;2024-02-15T02:59:12;-0.4;88.2
72919;SHT30;68407;55.694;26.994;2024-02-15T03:04:52;-0.5;88.1
72919;SHT30;68407;55.694;26.994;2024-02-15T03:09:18;-0.5;87.7
72919;SHT30;68407;55.694;26.994;2024-02-15T03:14:52;-0.5;88.1
72919;SHT30;68407;55.694;26.994;2024-02-15T03:19:42;-0.5;88.2
72919;SHT30;68407;55.694;26.994;2024-02-15T03:24:18;-0.5;88.7
72919;SHT30;68407;55.694;26.994;2024-02-15T03:29:10;-0.6;89.1
72919;SHT30;68407;55.694;26.994;2024-02-15T03:34:38;-0.5;89.2
72919;SHT30;68407;55.694;26.994;2024-02-15T03:39:52;-0.4;88.9
72919;SHT30;68407;55.694;26.994;2024-02-15T03:44:58;-0.5;88.1
72919;SHT30;68407;55.694;26.994;2024-02-15T03:49:58;-0.6;87.8
72919;SHT30;68407;55.694;26.994;2024-02-15T03:54:10;-0.7;88.4
72919;SHT30;68407;55.694;26.994;2024-02-15T03:59:40;-0.6;88.9
72919;SHT30;68407;55.694;26.994;2024-02-15T04:05:00;-0.6;88.5
72919;SHT30;68407;55.694;26.994;2024-02-15T04:09:52;-0.7;88.2
72919;SHT30;68407;55.694;26.994;2024-02-15T04:14:24;-0.8;88
72919;SHT30;68407;55.694;26.994;2024-02-15T04:19:22;-0.9;87.5
72919;SHT30;68407;55.694;26.994;2024-02-15T04:24:52;-1;87.6
72919;SHT30;68407;55.694;26.994;2024-02-15T04:30:00;-1;88.1
72919;SHT30;68407;55.694;26.994;2024-02-15T04:34:59;-1.1;88.4
72919;SHT30;68407;55.694;26.994;2024-02-15T04:39:52;-1.1;88.7
72919;SHT30;68407;55.694;26.994;2024-02-15T04:44:30;-1.1;89.1
72919;SHT30;68407;55.694;26.994;2024-02-15T04:49:52;-1.1;89.1
72919;SHT30;68407;55.694;26.994;2024-02-15T04:54:38;-1;89.3
72919;SHT30;68407;55.694;26.994;2024-02-15T04:59:32;-0.8;89.5
72919;SHT30;68407;55.694;26.994;2024-02-15T05:04:52;-0.8;89.2
72919;SHT30;68407;55.694;26.994;2024-02-15T05:09:12;-0.7;89.3
72919;SHT30;68407;55.694;26.994;2024-02-15T05:14:46;-0.6;89.1
72919;SHT30;68407;55.694;26.994;2024-02-15T05:20:00;-0.5;89.1
72919;SHT30;68407;55.694;26.994;2024-02-15T05:25:00;-0.4;88.8
72919;SHT30;68407;55.694;26.994;2024-02-15T05:29:38;-0.5;88.8
72919;SHT30;68407;55.694;26.994;2024-02-15T05:34:34;-0.5;88.6
72919;SHT30;68407;55.694;26.994;2024-02-15T05:39:58;-0.6;88.3
72919;SHT30;68407;55.694;26.994;2024-02-15T05:44:52;-0.7;88.7
72919;SHT30;68407;55.694;26.994;2024-02-15T05:49:38;-0.9;88.5
72919;SHT30;68407;55.694;26.994;2024-02-15T05:54:14;-1;88.7
72919;SHT30;68407;55.694;26.994;2024-02-15T05:59:10;-1;88.7
72919;SHT30;68407;55.694;26.994;2024-02-15T06:04:20;-1;88.5
72919;SHT30;68407;55.694;26.994;2024-02-15T06:09:20;-1.2;87.6
72919;SHT30;68407;55.694;26.994;2024-02-15T06:15:03;-1.3;88.7
72919;SHT30;68407;55.694;26.994;2024-02-15T06:19:18;-1.4;88.8
72919;SHT30;68407;55.694;26.994;2024-02-15T06:24:38;-1.2;88.9
72919;SHT30;68407;55.694;26.994;2024-02-15T06:29:34;-1.1;89.1
72919;SHT30;68407;55.694;26.994;2024-02-15T06:34:18;-1.1;88.5
72919;SHT30;68407;55.694;26.994;2024-02-15T06:39:20;-1.1;87.9
72919;SHT30;68407;55.694;26.994;2024-02-15T06:44:26;-1;88.3
72919;SHT30;68407;55.694;26.994;2024-02-15T06:49:24;-0.9;88.7
72919;SHT30;68407;55.694;26.994;2024-02-15T06:54:26;-0.7;88.8
72919;SHT30;68407;55.694;26.994;2024-02-15T06:59:45;-0.5;88.8
72919;SHT30;68407;55.694;26.994;2024-02-15T07:04:26;-0.3;88.7
72919;SHT30;68407;55.694;26.994;2024-02-15T07:10:00;-0.1;88.5
72919;SHT30;68407;55.694;26.994;2024-02-15T07:14:46;0.2;88.5
72919;SHT30;68407;55.694;26.994;2024-02-15T07:19:52;0.5;88.3
72919;SHT30;68407;55.694;26.994;2024-02-15T07:24:32;0.7;87.8
72919;SHT30;68407;55.694;26.994;2024-02-15T07:29:20;1;87.5
72919;SHT30;68407;55.694;26.994;2024-02-15T07:34:58;1.2;87.1
72919;SHT30;68407;55.694;26.994;2024-02-15T07:39:58;1.4;86.5
72919;SHT30;68407;55.694;26.994;2024-02-15T07:44:28;1.6;86.1
72919;SHT30;68407;55.694;26.994;2024-02-15T07:50:00;1.9;85.7
72919;SHT30;68407;55.694;26.994;2024-02-15T07:54:58;2.2;85.2
72919;SHT30;68407;55.694;26.994;2024-02-15T07:59:15;2.3;84.7
72919;SHT30;68407;55.694;26.994;2024-02-15T08:04:58;2.5;84.5
72919;SHT30;68407;55.694;26.994;2024-02-15T08:09:20;2.6;83.9
72919;SHT30;68407;55.694;26.994;2024-02-15T08:14:40;2.7;83.4
72919;SHT30;68407;55.694;26.994;2024-02-15T08:19:20;2.7;83.2
72919;SHT30;68407;55.694;26.994;2024-02-15T08:24:12;2.9;82.8
72919;SHT30;68407;55.694;26.994;2024-02-15T08:29:52;3.1;82.2
72919;SHT30;68407;55.694;26.994;2024-02-15T08:34:34;3.2;81.8
72919;SHT30;68407;55.694;26.994;2024-02-15T08:39:26;3.4;81.2
72919;SHT30;68407;55.694;26.994;2024-02-15T08:45:00;3.6;80.9
72919;SHT30;68407;55.694;26.994;2024-02-15T08:49:46;3.8;80.3
72919;SHT30;68407;55.694;26.994;2024-02-15T08:54:26;4;79.7
72919;SHT30;68407;55.694;26.994;2024-02-15T08:59:32;4.2;79.1
72919;SHT30;68407;55.694;26.994;2024-02-15T09:04:38;4.4;78.5
72919;SHT30;68407;55.694;26.994;2024-02-15T09:10:00;4.8;78.1
72919;SHT30;68407;55.694;26.994;2024-02-15T09:14:59;5.1;77.2
72919;SHT30;68407;55.694;26.994;2024-02-15T09:19:38;5.4;76.2
72919;SHT30;68407;55.694;26.994;2024-02-15T09:25:01;5.5;75.7
72919;SHT30;68407;55.694;26.994;2024-02-15T09:29:50;5.7;75.6
72919;SHT30;68407;55.694;26.994;2024-02-15T09:34:46;5.6;74.9
72919;SHT30;68407;55.694;26.994;2024-02-15T09:40:00;5.7;74.9
72919;SHT30;68407;55.694;26.994;2024-02-15T09:44:26;5.7;74.4
72919;SHT30;68407;55.694;26.994;2024-02-15T09:49:12;5.8;74.1
72919;SHT30;68407;55.694;26.994;2024-02-15T09:54:13;6;73.3
72919;SHT30;68407;55.694;26.994;2024-02-15T09:59:40;5.9;72.9
72919;SHT30;68407;55.694;26.994;2024-02-15T10:04:53;5.9;72.8
72919;SHT30;68407;55.694;26.994;2024-02-15T10:10:13;5.9;72.6
72919;SHT30;68407;55.694;26.994;2024-02-15T10:14:28;6.1;72
72919;SHT30;68407;55.694;26.994;2024-02-15T10:20:06;6.2;71.8
72919;SHT30;68407;55.694;26.994;2024-02-15T10:24:46;6.2;71.3
72919;SHT30;68407;55.694;26.994;2024-02-15T10:29:45;6.1;71.5
72919;SHT30;68407;55.694;26.994;2024-02-15T10:35:00;6.1;71.1
72919;SHT30;68407;55.694;26.994;2024-02-15T10:39:40;6.1;71.3
72919;SHT30;68407;55.694;26.994;2024-02-15T10:44:51;6.1;71.3
72919;SHT30;68407;55.694;26.994;2024-02-15T10:49:33;6;71.1
72919;SHT30;68407;55.694;26.994;2024-02-15T10:54:54;6;71.6
72919;SHT30;68407;55.694;26.994;2024-02-15T10:59:20;6;71.7
72919;SHT30;68407;55.694;26.994;2024-02-15T11:05:01;5.9;71.9
72919;SHT30;68407;55.694;26.994;2024-02-15T11:09:38;5.9;72
72919;SHT30;68407;55.694;26.994;2024-02-15T11:14:53;5.8;72.2
72919;SHT30;68407;55.694;26.994;2024-02-15T11:19:40;5.8;72
72919;SHT30;68407;55.694;26.994;2024-02-15T11:24:25;6;71.6
72919;SHT30;68407;55.694;26.994;2024-02-15T11:29:47;5.9;71.5
72919;SHT30;68407;55.694;26.994;2024-02-15T11:34:48;5.8;71.6
72919;SHT30;68407;55.694;26.994;2024-02-15T11:39:40;5.9;71.6
72919;SHT30;68407;55.694;26.994;2024-02-15T11:44:15;6;71.6
72919;SHT30;68407;55.694;26.994;2024-02-15T11:49:23;6;71.3
72919;SHT30;68407;55.694;26.994;2024-02-15T11:55:04;5.9;71.3
72919;SHT30;68407;55.694;26.994;2024-02-15T12:00:01;5.9;71.1
72919;SHT30;68407;55.694;26.994;2024-02-15T12:04:21;5.8;71.4
72919;SHT30;68407;55.694;26.994;2024-02-15T12:09:41;5.8;71.5
72919;SHT30;68407;55.694;26.994;2024-02-15T12:15:01;6;71.1
72919;SHT30;68407;55.694;26.994;2024-02-15T12:19:53;6.1;70.7
72919;SHT30;68407;55.694;26.994;2024-02-15T12:24:33;6;71
72919;SHT30;68407;55.694;26.994;2024-02-15T12:30:01;5.8;71.3
72919;SHT30;68407;55.694;26.994;2024-02-15T12:34:33;5.7;71.8
72919;SHT30;68407;55.694;26.994;2024-02-15T12:40:09;5.8;71.9
72919;SHT30;68407;55.694;26.994;2024-02-15T12:44:41;5.7;71.8
72919;SHT30;68407;55.694;26.994;2024-02-15T12:50:12;5.7;71.7
72919;SHT30;68407;55.694;26.994;2024-02-15T12:54:39;5.6;71.5
72919;SHT30;68407;55.694;26.994;2024-02-15T13:00:01;5.4;71.2
72919;SHT30;68407;55.694;26.994;2024-02-15T13:04:27;5.3;71.6
72919;SHT30;68407;55.694;26.994;2024-02-15T13:09:41;5.1;72.2
72919;SHT30;68407;55.694;26.994;2024-02-15T13:14:21;4.9;72.5
72919;SHT30;68407;55.694;26.994;2024-02-15T13:19:13;4.7;73
72919;SHT30;68407;55.694;26.994;2024-02-15T13:24:13;4.6;73.1
72919;SHT30;68407;55.694;26.994;2024-02-15T13:29:21;4.6;73.3
72919;SHT30;68407;55.694;26.994;2024-02-15T13:35:01;4.5;73.6
72919;SHT30;68407;55.694;26.994;2024-02-15T13:39:26;4.3;74.1
72919;SHT30;68407;55.694;26.994;2024-02-15T13:44:39;4.2;74.5
72919;SHT30;68407;55.694;26.994;2024-02-15T13:49:59;4.2;75
72919;SHT30;68407;55.694;26.994;2024-02-15T13:54:51;4.1;75.2
72919;SHT30;68407;55.694;26.994;2024-02-15T13:59:21;4.1;75.5
72919;SHT30;68407;55.694;26.994;2024-02-15T14:04:39;3.9;75.5
72919;SHT30;68407;55.694;26.994;2024-02-15T14:09:33;3.9;75.9
72919;SHT30;68407;55.694;26.994;2024-02-15T14:15:01;3.7;76
72919;SHT30;68407;55.694;26.994;2024-02-15T14:19:13;3.5;76.1
72919;SHT30;68407;55.694;26.994;2024-02-15T14:25:01;3.5;76.3
72919;SHT30;68407;55.694;26.994;2024-02-15T14:29:21;3.5;76.5
72919;SHT30;68407;55.694;26.994;2024-02-15T14:34:48;3.3;76.9
72919;SHT30;68407;55.694;26.994;2024-02-15T14:39:13;3.3;77.3
72919;SHT30;68407;55.694;26.994;2024-02-15T14:44:47;3.2;77.6
72919;SHT30;68407;55.694;26.994;2024-02-15T14:49:13;3.1;77.8
72919;SHT30;68407;55.694;26.994;2024-02-15T14:54:33;3;78.1
72919;SHT30;68407;55.694;26.994;2024-02-15T14:59:21;2.8;78.6
72919;SHT30;68407;55.694;26.994;2024-02-15T15:04:27;2.8;78.9
72919;SHT30;68407;55.694;26.994;2024-02-15T15:10:01;2.7;79.1
72919;SHT30;68407;55.694;26.994;2024-02-15T15:14:21;2.7;79.4
72919;SHT30;68407;55.694;26.994;2024-02-15T15:20:01;2.7;79.7
72919;SHT30;68407;55.694;26.994;2024-02-15T15:24:47;2.6;80
72919;SHT30;68407;55.694;26.994;2024-02-15T15:29:53;2.5;80.5
72919;SHT30;68407;55.694;26.994;2024-02-15T15:34:53;2.4;80.5
72919;SHT30;68407;55.694;26.994;2024-02-15T15:39:41;2.4;80.2
72919;SHT30;68407;55.694;26.994;2024-02-15T15:45:01;2.4;80.1
72919;SHT30;68407;55.694;26.994;2024-02-15T15:50:01;2.3;80.1
72919;SHT30;68407;55.694;26.994;2024-02-15T15:54:39;2.3;79.8
72919;SHT30;68407;55.694;26.994;2024-02-15T16:00:01;2.3;79.8
72919;SHT30;68407;55.694;26.994;2024-02-15T16:04:53;2.3;79.9
72919;SHT30;68407;55.694;26.994;2024-02-15T16:09:47;2.3;79.7
72919;SHT30;68407;55.694;26.994;2024-02-15T16:15:01;2.2;79.7
72919;SHT30;68407;55.694;26.994;2024-02-15T16:19:13;2.2;79.7
72919;SHT30;68407;55.694;26.994;2024-02-15T16:24:13;2.2;79.8
72919;SHT30;68407;55.694;26.994;2024-02-15T16:29:53;2.1;79.8
72919;SHT30;68407;55.694;26.994;2024-02-15T16:34:42;2.1;79.9
72919;SHT30;68407;55.694;26.994;2024-02-15T16:39:13;2.1;80.1
72919;SHT30;68407;55.694;26.994;2024-02-15T16:44:41;2.2;80.1
72919;SHT30;68407;55.694;26.994;2024-02-15T16:49:27;2.1;80.2
72919;SHT30;68407;55.694;26.994;2024-02-15T16:55:02;2.1;80.3
72919;SHT30;68407;55.694;26.994;2024-02-15T16:59:47;2.1;80.4
72919;SHT30;68407;55.694;26.994;2024-02-15T17:04:27;2.1;80.6
72919;SHT30;68407;55.694;26.994;2024-02-15T17:09:13;2;80.7
72919;SHT30;68407;55.694;26.994;2024-02-15T17:14:41;2;80.7
72919;SHT30;68407;55.694;26.994;2024-02-15T17:19:53;2;80.9
72919;SHT30;68407;55.694;26.994;2024-02-15T17:24:34;2;81
72919;SHT30;68407;55.694;26.994;2024-02-15T17:29:53;2;81.1
72919;SHT30;68407;55.694;26.994;2024-02-15T17:34:47;2;81.2
72919;SHT30;68407;55.694;26.994;2024-02-15T17:40:03;1.9;81.2
72919;SHT30;68407;55.694;26.994;2024-02-15T17:44:39;1.9;81.3
72919;SHT30;68407;55.694;26.994;2024-02-15T17:49:15;1.9;81.5
72919;SHT30;68407;55.694;26.994;2024-02-15T17:54:39;1.8;81.5
72919;SHT30;68407;55.694;26.994;2024-02-15T17:59:13;1.8;81.7
72919;SHT30;68407;55.694;26.994;2024-02-15T18:04:21;1.9;81.7
72919;SHT30;68407;55.694;26.994;2024-02-15T18:09:13;1.9;81.6
72919;SHT30;68407;55.694;26.994;2024-02-15T18:14:39;1.9;81.7
72919;SHT30;68407;55.694;26.994;2024-02-15T18:19:33;1.8;81.8
72919;SHT30;68407;55.694;26.994;2024-02-15T18:24:21;1.8;81.7
72919;SHT30;68407;55.694;26.994;2024-02-15T18:30:01;1.8;81.7
72919;SHT30;68407;55.694;26.994;2024-02-15T18:34:47;1.8;81.6
72919;SHT30;68407;55.694;26.994;2024-02-15T18:39:27;1.8;81.5
72919;SHT30;68407;55.694;26.994;2024-02-15T18:44:13;1.8;81.4
72919;SHT30;68407;55.694;26.994;2024-02-15T18:49:41;1.7;81.1
72919;SHT30;68407;55.694;26.994;2024-02-15T18:54:45;1.8;81.2
72919;SHT30;68407;55.694;26.994;2024-02-15T18:59:59;1.7;81.2
72919;SHT30;68407;55.694;26.994;2024-02-15T19:04:53;1.7;81.1
72919;SHT30;68407;55.694;26.994;2024-02-15T19:09:47;1.7;80.9
72919;SHT30;68407;55.694;26.994;2024-02-15T19:15:01;1.7;80.8
72919;SHT30;68407;55.694;26.994;2024-02-15T19:19:45;1.7;80.6
72919;SHT30;68407;55.694;26.994;2024-02-15T19:24:41;1.7;80.5
72919;SHT30;68407;55.694;26.994;2024-02-15T19:29:21;1.7;80.3
72919;SHT30;68407;55.694;26.994;2024-02-15T19:34:25;1.7;80.5
72919;SHT30;68407;55.694;26.994;2024-02-15T19:39:13;1.7;80.1
72919;SHT30;68407;55.694;26.994;2024-02-15T19:44:33;1.7;79.9
72919;SHT30;68407;55.694;26.994;2024-02-15T19:49:33;1.7;80.1
72919;SHT30;68407;55.694;26.994;2024-02-15T19:54:21;1.7;80.1
72919;SHT30;68407;55.694;26.994;2024-02-15T19:59:49;1.7;80.1
72919;SHT30;68407;55.694;26.994;2024-02-15T20:05:01;1.7;80.1
72919;SHT30;68407;55.694;26.994;2024-02-15T20:10:01;1.7;80.2
72919;SHT30;68407;55.694;26.994;2024-02-15T20:14:45;1.6;80.2
72919;SHT30;68407;55.694;26.994;2024-02-15T20:19:39;1.6;80.4
72919;SHT30;68407;55.694;26.994;2024-02-15T20:24:59;1.6;80.6
72919;SHT30;68407;55.694;26.994;2024-02-15T20:29:51;1.6;80.8
72919;SHT30;68407;55.694;26.994;2024-02-15T20:34:13;1.6;80.9
72919;SHT30;68407;55.694;26.994;2024-02-15T20:39:37;1.6;80.8
72919;SHT30;68407;55.694;26.994;2024-02-15T20:44:31;1.6;80.8
72919;SHT30;68407;55.694;26.994;2024-02-15T20:49:59;1.6;80.9
72919;SHT30;68407;55.694;26.994;2024-02-15T20:54:13;1.7;81.1
72919;SHT30;68407;55.694;26.994;2024-02-15T20:59:45;1.6;81.1
72919;SHT30;68407;55.694;26.994;2024-02-15T21:04:37;1.6;81.3
72919;SHT30;68407;55.694;26.994;2024-02-15T21:09:45;1.6;81.4
72919;SHT30;68407;55.694;26.994;2024-02-15T21:14:19;1.6;81.3
72919;SHT30;68407;55.694;26.994;2024-02-15T21:19:59;1.6;81.4
72919;SHT30;68407;55.694;26.994;2024-02-15T21:24:19;1.6;81.5
72919;SHT30;68407;55.694;26.994;2024-02-15T21:29:25;1.5;81.7
72919;SHT30;68407;55.694;26.994;2024-02-15T21:34:13;1.5;81.9
72919;SHT30;68407;55.694;26.994;2024-02-15T21:39:59;1.5;82.1
72919;SHT30;68407;55.694;26.994;2024-02-15T21:44:59;1.5;82.2
72919;SHT30;68407;55.694;26.994;2024-02-15T21:49:13;1.5;82.3
72919;SHT30;68407;55.694;26.994;2024-02-15T21:54:59;1.5;82.3
72919;SHT30;68407;55.694;26.994;2024-02-15T21:59:53;1.5;82.3
72919;SHT30;68407;55.694;26.994;2024-02-15T22:04:51;1.5;82.4
72919;SHT30;68407;55.694;26.994;2024-02-15T22:09:13;1.5;82.5
72919;SHT30;68407;55.694;26.994;2024-02-15T22:14:33;1.5;82.6
72919;SHT30;68407;55.694;26.994;2024-02-15T22:19:41;1.5;82.6
72919;SHT30;68407;55.694;26.994;2024-02-15T22:24:59;1.5;82.7
72919;SHT30;68407;55.694;26.994;2024-02-15T22:29:59;1.5;82.8
72919;SHT30;68407;55.694;26.994;2024-02-15T22:34:59;1.5;82.9
72919;SHT30;68407;55.694;26.994;2024-02-15T22:39:59;1.5;83
72919;SHT30;68407;55.694;26.994;2024-02-15T22:44:45;1.4;83
72919;SHT30;68407;55.694;26.994;2024-02-15T22:49:51;1.4;83.2
72919;SHT30;68407;55.694;26.994;2024-02-15T22:54:25;1.4;83.5
72919;SHT30;68407;55.694;26.994;2024-02-15T22:59:19;1.3;84.3
72919;SHT30;68407;55.694;26.994;2024-02-15T23:04:19;1.3;84.9
72919;SHT30;68407;55.694;26.994;2024-02-15T23:09:19;1.2;85.3
72919;SHT30;68407;55.694;26.994;2024-02-15T23:14:25;1.1;85.9
72919;SHT30;68407;55.694;26.994;2024-02-15T23:19:59;1.1;86.5
72919;SHT30;68407;55.694;26.994;2024-02-15T23:24:45;1;87.1
72919;SHT30;68407;55.694;26.994;2024-02-15T23:29:59;1;87.6
72919;SHT30;68407;55.694;26.994;2024-02-15T23:34:41;0.9;87.9
72919;SHT30;68407;55.694;26.994;2024-02-15T23:39:51;0.9;88
72919;SHT30;68407;55.694;26.994;2024-02-15T23:44:28;0.9;88.1
72919;SHT30;68407;55.694;26.994;2024-02-15T23:49:37;0.9;88.3
72919;SHT30;68407;55.694;26.994;2024-02-15T23:54:57;0.9;88.6
72919;SHT30;68407;55.694;26.994;2024-02-15T23:59:57;0.9;88.7
